createdAt,value
2019-04-29T00:05:45.066Z,2.93
2019-04-29T00:12:31.317Z,2.77
2019-04-29T00:19:24.535Z,2.97
2019-04-29T00:26:10.102Z,2.80
2019-04-29T00:32:55.335Z,3.63
2019-04-29T00:39:51.415Z,3.10
2019-04-29T00:46:36.703Z,2.80
2019-04-29T00:53:21.707Z,5.10
2019-04-29T01:00:08.314Z,2.97
2019-04-29T01:06:55.115Z,4.27
2019-04-29T01:13:39.968Z,3.63
2019-04-29T01:20:24.822Z,3.53
2019-04-29T01:27:11.384Z,3.50
2019-04-29T01:33:57.930Z,3.77
2019-04-29T01:40:47.878Z,4.50
2019-04-29T01:47:32.747Z,5.03
2019-04-29T01:54:17.730Z,3.87
2019-04-29T02:01:02.699Z,4.30
2019-04-29T02:07:47.911Z,4.53
2019-04-29T02:14:33.079Z,4.80
2019-04-29T02:21:18.107Z,4.60
2019-04-29T02:28:03.053Z,4.10
2019-04-29T02:34:48.546Z,4.63
2019-04-29T02:41:38.149Z,5.60
2019-04-29T02:48:23.307Z,4.90
2019-04-29T02:55:10.295Z,5.23
2019-04-29T03:02:06.677Z,5.33
2019-04-29T03:08:51.772Z,5.27
2019-04-29T03:15:39.698Z,5.93
2019-04-29T03:22:25.308Z,6.47
2019-04-29T03:29:12.038Z,5.43
2019-04-29T03:35:57.179Z,6.40
2019-04-29T03:42:43.271Z,6.17
2019-04-29T03:49:28.119Z,6.90
2019-04-29T03:56:13.279Z,7.17
2019-04-29T04:03:14.775Z,7.50
2019-04-29T04:09:59.735Z,6.53
2019-04-29T04:17:04.965Z,6.77
2019-04-29T04:23:50.027Z,6.00
2019-04-29T04:30:35.043Z,7.60
2019-04-29T04:37:20.010Z,7.80
2019-04-29T04:44:05.080Z,7.37
2019-04-29T04:50:50.049Z,6.77
2019-04-29T04:57:35.101Z,6.67
2019-04-29T05:04:20.098Z,6.80
2019-04-29T05:11:05.070Z,7.07
2019-04-29T05:17:53.033Z,6.17
2019-04-29T05:24:36.694Z,5.30
2019-04-29T05:31:21.564Z,5.23
2019-04-29T05:38:13.922Z,5.57
2019-04-29T05:45:16.863Z,5.47
2019-04-29T05:52:15.787Z,5.77
2019-04-29T05:59:00.751Z,5.13
2019-04-29T06:05:45.758Z,5.60
2019-04-29T06:12:30.902Z,6.07
2019-04-29T06:19:15.901Z,5.20
2019-04-29T06:26:01.252Z,4.87
2019-04-29T06:32:46.389Z,3.67
2019-04-29T06:39:31.632Z,7.20
2019-04-29T06:46:16.669Z,3.75
2019-04-29T06:53:02.120Z,3.60
2019-04-29T06:59:48.628Z,3.40
2019-04-29T07:06:33.675Z,3.43
2019-04-29T07:13:22.930Z,4.43
2019-04-29T07:20:06.923Z,2.53
2019-04-29T07:26:51.972Z,2.77
2019-04-29T07:33:37.050Z,2.60
2019-04-29T07:40:22.445Z,2.40
2019-04-29T07:47:07.378Z,2.23
2019-04-29T07:53:52.359Z,2.43
2019-04-29T08:00:37.552Z,2.90
2019-04-29T08:07:23.797Z,2.83
2019-04-29T08:14:08.810Z,2.97
2019-04-29T08:20:54.047Z,2.70
2019-04-29T08:27:41.862Z,2.80
2019-04-29T08:34:25.759Z,2.93
2019-04-29T08:41:10.927Z,2.40
2019-04-29T08:47:56.043Z,3.10
2019-04-29T08:54:41.254Z,3.27
2019-04-29T09:01:29.308Z,3.10
2019-04-29T09:08:13.523Z,3.33
2019-04-29T09:14:59.023Z,2.95
2019-04-29T09:21:45.733Z,3.70
2019-04-29T09:28:30.835Z,3.37
2019-04-29T09:35:16.471Z,3.60
2019-04-29T09:42:03.577Z,3.22
2019-04-29T09:48:48.942Z,3.17
2019-04-29T09:55:35.612Z,3.42
2019-04-29T10:02:37.719Z,3.40
2019-04-29T10:09:23.356Z,3.05
2019-04-29T10:16:09.983Z,3.55
2019-04-29T10:22:55.031Z,3.50
2019-04-29T10:29:41.851Z,3.37
2019-04-29T10:36:27.227Z,2.90
2019-04-29T10:43:17.285Z,3.35
2019-04-29T10:50:19.545Z,3.75
2019-04-29T10:57:05.228Z,3.05
2019-04-29T11:03:50.539Z,3.22
2019-04-29T11:10:36.113Z,3.40
2019-04-29T11:17:23.029Z,2.83
2019-04-29T11:24:09.844Z,2.25
2019-04-29T11:30:55.120Z,3.00
2019-04-29T11:37:41.312Z,2.75
2019-04-29T11:44:27.689Z,2.90
2019-04-29T11:51:20.315Z,3.05
2019-04-29T11:58:13.256Z,3.53
2019-04-29T12:05:04.273Z,2.13
2019-04-29T12:11:46.598Z,2.22
2019-04-29T12:18:33.999Z,2.52
2019-04-29T12:25:22.987Z,2.50
2019-04-29T12:32:14.201Z,2.02
2019-04-29T12:39:03.710Z,2.22
2019-04-29T12:45:53.672Z,3.07
2019-04-29T12:52:38.689Z,2.30
2019-04-29T12:59:24.659Z,2.80
2019-04-29T13:06:24.347Z,2.55
2019-04-29T13:13:11.442Z,2.73
2019-04-29T13:20:07.346Z,2.15
2019-04-29T13:26:51.007Z,2.47
2019-04-29T13:33:35.969Z,3.17
2019-04-29T13:40:21.315Z,2.67
2019-04-29T13:47:10.764Z,3.27
2019-04-29T13:53:59.792Z,2.73
2019-04-29T14:00:59.865Z,3.47
2019-04-29T14:07:43.407Z,2.70
2019-04-29T14:14:28.706Z,3.13
2019-04-29T14:21:13.787Z,3.10
2019-04-29T14:27:58.907Z,2.80
2019-04-29T14:34:57.578Z,3.20
2019-04-29T14:41:44.499Z,2.83
2019-04-29T14:48:42.037Z,2.17
2019-04-29T14:55:19.880Z,3.10
2019-04-29T15:02:16.205Z,3.10
2019-04-29T15:08:54.623Z,4.00
2019-04-29T15:15:41.438Z,3.43
2019-04-29T15:22:28.523Z,3.10
2019-04-29T15:29:13.955Z,3.33
2019-04-29T15:35:59.909Z,2.10
2019-04-29T15:42:49.135Z,2.60
2019-04-29T15:49:32.500Z,2.00
2019-04-29T15:56:28.219Z,2.30
2019-04-29T16:03:04.170Z,2.30
2019-04-29T16:09:52.128Z,2.60
2019-04-29T16:16:38.380Z,2.43
2019-04-29T16:23:23.334Z,2.47
2019-04-29T16:30:09.579Z,3.17
2019-04-29T16:36:54.874Z,3.80
2019-04-29T16:43:42.583Z,3.03
2019-04-29T16:50:27.898Z,3.83
2019-04-29T16:57:37.812Z,4.37
2019-04-29T17:04:22.848Z,4.07
2019-04-29T17:11:12.063Z,3.97
2019-04-29T17:17:56.242Z,4.23
2019-04-29T17:24:41.252Z,3.70
2019-04-29T17:31:31.281Z,4.00
2019-04-29T17:38:16.598Z,3.50
2019-04-29T17:45:10.498Z,4.77
2019-04-29T17:51:49.859Z,5.00
2019-04-29T17:58:51.272Z,5.03
2019-04-29T18:05:52.917Z,3.90
2019-04-29T18:12:26.286Z,4.03
2019-04-29T18:19:18.804Z,4.27
2019-04-29T18:26:06.225Z,5.50
2019-04-29T18:32:53.024Z,4.60
2019-04-29T18:39:38.602Z,3.70
2019-04-29T18:46:25.885Z,3.90
2019-04-29T18:53:11.455Z,4.17
2019-04-29T18:59:56.440Z,3.67
2019-04-29T19:06:41.966Z,4.43
2019-04-29T19:13:27.063Z,4.60
2019-04-29T19:20:16.679Z,5.40
2019-04-29T19:27:01.075Z,5.03
2019-04-29T19:33:47.107Z,5.47
2019-04-29T19:40:38.907Z,5.80
2019-04-29T19:47:18.835Z,5.93
2019-04-29T19:54:05.151Z,6.50
2019-04-29T20:00:51.800Z,6.33
2019-04-29T20:07:42.331Z,7.00
2019-04-29T20:14:29.656Z,6.27
2019-04-29T20:21:24.641Z,5.23
2019-04-29T20:28:06.050Z,5.90
2019-04-29T20:34:48.522Z,4.97
2019-04-29T20:41:40.696Z,5.57
2019-04-29T20:48:21.036Z,5.50
2019-04-29T20:55:09.287Z,6.33
2019-04-29T21:02:12.090Z,6.70
2019-04-29T21:08:50.958Z,7.00
2019-04-29T21:15:39.650Z,8.43
2019-04-29T21:22:26.049Z,10.10
2019-04-29T21:29:15.747Z,10.53
2019-04-29T21:35:59.442Z,10.73
2019-04-29T21:42:47.370Z,11.60
2019-04-29T21:49:43.273Z,13.30
2019-04-29T21:56:18.838Z,12.03
2019-04-29T22:03:05.409Z,13.00
2019-04-29T22:09:50.486Z,14.73
2019-04-29T22:16:35.672Z,14.03
2019-04-29T22:23:21.600Z,14.50
2019-04-29T22:30:10.247Z,14.37
2019-04-29T22:36:58.310Z,14.18
2019-04-29T22:43:46.958Z,15.20
2019-04-29T22:50:33.746Z,14.23
2019-04-29T22:57:22.969Z,15.40
2019-04-29T23:04:09.582Z,14.70
2019-04-29T23:10:52.495Z,16.47
2019-04-29T23:17:37.540Z,17.37
2019-04-29T23:24:40.303Z,18.73
2019-04-29T23:31:27.095Z,18.30
2019-04-29T23:38:12.950Z,19.97
2019-04-29T23:44:57.855Z,21.13
2019-04-29T23:51:42.741Z,21.95
2019-04-29T23:58:37.246Z,21.30
